TimeCST,TemperatureF,Dew PointF,Humidity,Sea Level PressureIn,VisibilityMPH,Wind Direction,Wind SpeedMPH,Gust SpeedMPH,PrecipitationIn,Events,Conditions,WindDirDegrees,DateUTC
12:15 AM,23.0,15.8,74,30.06,10.0,WNW,12.7,-,N/A,,Overcast,300,2013-02-12 06:15:00
12:35 AM,23.0,15.8,74,30.06,10.0,WNW,13.8,18.4,N/A,,Overcast,290,2013-02-12 06:35:00
12:55 AM,23.0,15.8,74,30.07,10.0,West,11.5,-,N/A,,Overcast,270,2013-02-12 06:55:00
1:15 AM,23.0,15.8,74,30.08,10.0,West,10.4,-,N/A,,Overcast,280,2013-02-12 07:15:00
1:35 AM,23.0,15.8,74,30.08,10.0,West,11.5,19.6,N/A,,Overcast,270,2013-02-12 07:35:00
1:55 AM,23.0,15.8,74,30.09,10.0,West,9.2,-,N/A,,Overcast,280,2013-02-12 07:55:00
2:15 AM,23.0,15.8,74,30.09,10.0,West,10.4,-,N/A,,Overcast,270,2013-02-12 08:15:00
2:35 AM,23.0,15.8,74,30.09,10.0,West,10.4,-,N/A,,Overcast,280,2013-02-12 08:35:00
2:55 AM,23.0,15.8,74,30.09,10.0,West,10.4,18.4,N/A,,Overcast,280,2013-02-12 08:55:00
3:15 AM,23.0,15.8,74,30.09,10.0,West,10.4,-,N/A,,Overcast,270,2013-02-12 09:15:00
3:35 AM,23.0,15.8,74,30.08,10.0,WNW,17.3,21.9,N/A,,Overcast,290,2013-02-12 09:35:00
3:55 AM,23.0,14.0,68,30.08,10.0,West,12.7,-,N/A,,Overcast,280,2013-02-12 09:55:00
4:15 AM,23.0,14.0,68,30.08,10.0,West,15.0,-,N/A,,Overcast,280,2013-02-12 10:15:00
4:35 AM,23.0,15.8,74,30.08,10.0,West,12.7,-,N/A,,Overcast,280,2013-02-12 10:35:00
4:55 AM,23.0,15.8,74,30.08,10.0,West,9.2,-,N/A,,Overcast,270,2013-02-12 10:55:00
5:15 AM,21.2,15.8,80,30.08,10.0,West,6.9,-,N/A,,Scattered Clouds,270,2013-02-12 11:15:00
5:35 AM,21.2,14.0,74,30.07,10.0,West,5.8,-,N/A,,Clear,260,2013-02-12 11:35:00
5:55 AM,21.2,14.0,74,30.07,10.0,West,3.5,-,N/A,,Clear,260,2013-02-12 11:55:00
6:15 AM,19.4,14.0,80,30.07,10.0,WSW,4.6,-,N/A,,Mostly Cloudy,250,2013-02-12 12:15:00
6:35 AM,19.4,14.0,80,30.07,10.0,WSW,4.6,-,N/A,,Overcast,250,2013-02-12 12:35:00
6:55 AM,21.2,14.0,74,30.08,10.0,WSW,3.5,-,N/A,,Overcast,250,2013-02-12 12:55:00
7:15 AM,21.2,15.8,80,30.09,10.0,WSW,5.8,-,N/A,,Overcast,240,2013-02-12 13:15:00
7:35 AM,21.2,15.8,80,30.09,10.0,Calm,Calm,-,N/A,,Overcast,0,2013-02-12 13:35:00
7:55 AM,23.0,15.8,74,30.09,10.0,Calm,Calm,-,N/A,,Overcast,0,2013-02-12 13:55:00
8:15 AM,23.0,15.8,74,30.10,10.0,Calm,Calm,-,N/A,,Overcast,0,2013-02-12 14:15:00
8:35 AM,23.0,15.8,74,30.09,10.0,Calm,Calm,-,N/A,,Overcast,0,2013-02-12 14:35:00
8:55 AM,23.0,15.8,74,30.08,10.0,Calm,Calm,-,N/A,,Overcast,0,2013-02-12 14:55:00
9:15 AM,23.0,15.8,74,30.08,10.0,Calm,Calm,-,N/A,,Overcast,0,2013-02-12 15:15:00
9:35 AM,23.0,17.6,80,30.06,10.0,Calm,Calm,-,N/A,,Overcast,0,2013-02-12 15:35:00
9:55 AM,24.8,17.6,74,30.06,10.0,Calm,Calm,-,N/A,,Overcast,0,2013-02-12 15:55:00
10:15 AM,24.8,17.6,74,30.05,10.0,Calm,Calm,-,N/A,,Overcast,0,2013-02-12 16:15:00
10:35 AM,26.6,17.6,69,30.05,10.0,Calm,Calm,-,N/A,,Mostly Cloudy,0,2013-02-12 16:35:00
10:55 AM,28.4,19.4,69,30.05,10.0,WSW,6.9,-,N/A,,Scattered Clouds,250,2013-02-12 16:55:00
11:15 AM,28.4,19.4,69,30.06,10.0,SW,5.8,-,N/A,,Scattered Clouds,230,2013-02-12 17:15:00
11:35 AM,30.2,19.4,64,30.05,10.0,SW,6.9,-,N/A,,Mostly Cloudy,220,2013-02-12 17:35:00
11:55 AM,28.4,19.4,69,30.04,10.0,SSW,3.5,-,N/A,,Scattered Clouds,210,2013-02-12 17:55:00
12:15 PM,30.2,21.2,69,30.02,10.0,SW,9.2,-,N/A,,Scattered Clouds,220,2013-02-12 18:15:00
12:35 PM,30.2,21.2,69,30.01,10.0,SW,6.9,-,N/A,,Scattered Clouds,230,2013-02-12 18:35:00
12:55 PM,32.0,21.2,64,30.00,10.0,SW,6.9,-,N/A,,Scattered Clouds,220,2013-02-12 18:55:00
1:15 PM,32.0,21.2,64,29.99,10.0,SW,5.8,-,N/A,,Scattered Clouds,230,2013-02-12 19:15:00
1:35 PM,32.0,21.2,64,29.99,10.0,SW,8.1,-,N/A,,Clear,220,2013-02-12 19:35:00
1:55 PM,33.8,23.0,65,29.98,10.0,SW,10.4,16.1,N/A,,Clear,220,2013-02-12 19:55:00
2:15 PM,33.8,23.0,65,29.96,10.0,SSW,11.5,17.3,N/A,,Clear,210,2013-02-12 20:15:00
2:35 PM,33.8,23.0,65,29.96,10.0,SSW,4.6,-,N/A,,Clear,210,2013-02-12 20:35:00
2:55 PM,33.8,23.0,65,29.95,10.0,SW,5.8,-,N/A,,Clear,230,2013-02-12 20:55:00
3:15 PM,33.8,23.0,65,29.95,10.0,SSW,4.6,-,N/A,,Clear,200,2013-02-12 21:15:00
3:35 PM,33.8,23.0,65,29.94,10.0,SSW,5.8,-,N/A,,Clear,200,2013-02-12 21:35:00
3:55 PM,33.8,23.0,65,29.94,10.0,SW,6.9,-,N/A,,Clear,230,2013-02-12 21:55:00
4:15 PM,33.8,23.0,65,29.93,10.0,SW,6.9,-,N/A,,Clear,220,2013-02-12 22:15:00
4:35 PM,33.8,23.0,65,29.92,10.0,SSW,4.6,-,N/A,,Clear,200,2013-02-12 22:35:00
4:55 PM,33.8,23.0,65,29.92,10.0,SW,4.6,-,N/A,,Clear,220,2013-02-12 22:55:00
5:15 PM,33.8,23.0,65,29.91,10.0,SSW,3.5,-,N/A,,Clear,210,2013-02-12 23:15:00
5:35 PM,33.8,23.0,65,29.91,10.0,Calm,Calm,-,N/A,,Clear,0,2013-02-12 23:35:00
5:55 PM,33.8,23.0,65,29.91,10.0,Calm,Calm,-,N/A,,Clear,0,2013-02-12 23:55:00
6:15 PM,32.0,23.0,69,29.91,10.0,Calm,Calm,-,N/A,,Clear,0,2013-02-13 00:15:00
6:35 PM,30.2,23.0,75,29.90,10.0,Calm,Calm,-,N/A,,Clear,0,2013-02-13 00:35:00
6:55 PM,30.2,23.0,75,29.90,10.0,South,3.5,-,N/A,,Clear,180,2013-02-13 00:55:00
7:15 PM,30.2,23.0,75,29.90,10.0,Calm,Calm,-,N/A,,Clear,0,2013-02-13 01:15:00
7:35 PM,28.4,23.0,80,29.90,10.0,Calm,Calm,-,N/A,,Clear,0,2013-02-13 01:35:00
8:15 PM,26.6,23.0,86,29.90,10.0,Calm,Calm,-,N/A,,Clear,0,2013-02-13 02:15:00
8:35 PM,26.6,23.0,86,29.89,10.0,Calm,Calm,-,N/A,,Clear,0,2013-02-13 02:35:00
8:55 PM,24.8,21.2,86,29.89,10.0,Calm,Calm,-,N/A,,Clear,0,2013-02-13 02:55:00
9:15 PM,24.8,21.2,86,29.88,10.0,ESE,3.5,-,N/A,,Clear,120,2013-02-13 03:15:00
9:35 PM,24.8,21.2,86,29.87,10.0,Calm,Calm,-,N/A,,Clear,0,2013-02-13 03:35:00
9:55 PM,24.8,21.2,86,29.87,10.0,Calm,Calm,-,N/A,,Clear,0,2013-02-13 03:55:00
10:15 PM,23.0,21.2,93,29.86,10.0,Calm,Calm,-,N/A,,Clear,0,2013-02-13 04:15:00
10:35 PM,23.0,21.2,93,29.86,10.0,Calm,Calm,-,N/A,,Clear,0,2013-02-13 04:35:00
10:55 PM,23.0,19.4,86,29.85,10.0,Calm,Calm,-,N/A,,Clear,0,2013-02-13 04:55:00
11:15 PM,23.0,19.4,86,29.85,10.0,Calm,Calm,-,N/A,,Clear,0,2013-02-13 05:15:00
11:35 PM,21.2,19.4,93,29.84,7.0,Calm,Calm,-,N/A,,Clear,0,2013-02-13 05:35:00
11:55 PM,21.2,19.4,93,29.84,7.0,Calm,Calm,-,N/A,,Clear,0,2013-02-13 05:55:00